sensor_id;sensor_type;location;lat;lon;timestamp;temperature;humidity
10133;DHT22;5106;50.926;7.080;2023-05-10T00:01:34;13.10;88.30
10133;DHT22;5106;50.926;7.080;2023-05-10T00:03:59;13.20;88.30
10133;DHT22;5106;50.926;7.080;2023-05-10T00:06:25;13.20;88.20
10133;DHT22;5106;50.926;7.080;2023-05-10T00:08:51;13.20;88.20
10133;DHT22;5106;50.926;7.080;2023-05-10T00:11:16;13.10;88.10
10133;DHT22;5106;50.926;7.080;2023-05-10T00:13:42;13.20;88.10
10133;DHT22;5106;50.926;7.080;2023-05-10T00:16:07;13.10;88.00
10133;DHT22;5106;50.926;7.080;2023-05-10T00:18:33;13.10;88.00
10133;DHT22;5106;50.926;7.080;2023-05-10T00:20:58;13.10;88.10
10133;DHT22;5106;50.926;7.080;2023-05-10T00:23:24;13.10;88.10
10133;DHT22;5106;50.926;7.080;2023-05-10T00:25:50;13.10;88.20
10133;DHT22;5106;50.926;7.080;2023-05-10T00:28:16;13.10;88.10
10133;DHT22;5106;50.926;7.080;2023-05-10T00:30:41;13.10;88.20
10133;DHT22;5106;50.926;7.080;2023-05-10T00:33:07;13.10;88.20
10133;DHT22;5106;50.926;7.080;2023-05-10T00:35:32;13.10;88.20
10133;DHT22;5106;50.926;7.080;2023-05-10T00:37:58;13.10;88.20
10133;DHT22;5106;50.926;7.080;2023-05-10T00:40:24;13.10;88.30
10133;DHT22;5106;50.926;7.080;2023-05-10T00:42:49;13.10;88.20
10133;DHT22;5106;50.926;7.080;2023-05-10T00:45:15;13.10;88.20
10133;DHT22;5106;50.926;7.080;2023-05-10T00:47:41;13.10;88.30
10133;DHT22;5106;50.926;7.080;2023-05-10T00:50:07;13.10;88.30
10133;DHT22;5106;50.926;7.080;2023-05-10T00:52:34;13.10;88.30
10133;DHT22;5106;50.926;7.080;2023-05-10T00:55:00;13.10;88.40
10133;DHT22;5106;50.926;7.080;2023-05-10T00:57:25;13.10;88.40
10133;DHT22;5106;50.926;7.080;2023-05-10T00:59:51;13.20;88.30
10133;DHT22;5106;50.926;7.080;2023-05-10T01:02:17;13.20;88.20
10133;DHT22;5106;50.926;7.080;2023-05-10T01:04:43;13.20;88.10
10133;DHT22;5106;50.926;7.080;2023-05-10T01:07:08;13.20;88.00
10133;DHT22;5106;50.926;7.080;2023-05-10T01:09:34;13.20;88.00
10133;DHT22;5106;50.926;7.080;2023-05-10T01:12:00;13.20;88.00
10133;DHT22;5106;50.926;7.080;2023-05-10T01:14:27;13.20;87.90
10133;DHT22;5106;50.926;7.080;2023-05-10T01:16:53;13.10;87.80
10133;DHT22;5106;50.926;7.080;2023-05-10T01:19:23;13.10;87.90
10133;DHT22;5106;50.926;7.080;2023-05-10T01:33:30;13.10;88.10
10133;DHT22;5106;50.926;7.080;2023-05-10T01:36:05;13.20;88.20
10133;DHT22;5106;50.926;7.080;2023-05-10T01:38:50;13.20;88.10
10133;DHT22;5106;50.926;7.080;2023-05-10T01:46:35;13.20;88.20
10133;DHT22;5106;50.926;7.080;2023-05-10T01:49:06;13.20;88.10
10133;DHT22;5106;50.926;7.080;2023-05-10T01:51:41;13.20;88.20
10133;DHT22;5106;50.926;7.080;2023-05-10T01:54:12;13.20;88.10
10133;DHT22;5106;50.926;7.080;2023-05-10T01:56:39;13.20;88.10
10133;DHT22;5106;50.926;7.080;2023-05-10T01:59:08;13.20;88.10
10133;DHT22;5106;50.926;7.080;2023-05-10T02:01:36;13.10;88.20
10133;DHT22;5106;50.926;7.080;2023-05-10T02:04:03;13.10;88.20
10133;DHT22;5106;50.926;7.080;2023-05-10T02:06:30;13.10;88.30
10133;DHT22;5106;50.926;7.080;2023-05-10T02:08:57;13.20;88.40
10133;DHT22;5106;50.926;7.080;2023-05-10T02:11:23;13.20;88.40
10133;DHT22;5106;50.926;7.080;2023-05-10T02:13:51;13.20;88.40
10133;DHT22;5106;50.926;7.080;2023-05-10T02:16:23;13.20;88.40
10133;DHT22;5106;50.926;7.080;2023-05-10T02:18:50;13.20;88.30
10133;DHT22;5106;50.926;7.080;2023-05-10T02:21:17;13.20;88.30
10133;DHT22;5106;50.926;7.080;2023-05-10T02:23:43;13.20;88.30
10133;DHT22;5106;50.926;7.080;2023-05-10T02:26:11;13.20;88.30
10133;DHT22;5106;50.926;7.080;2023-05-10T02:28:40;13.20;88.30
10133;DHT22;5106;50.926;7.080;2023-05-10T02:31:07;13.20;88.20
10133;DHT22;5106;50.926;7.080;2023-05-10T02:33:35;13.10;88.20
10133;DHT22;5106;50.926;7.080;2023-05-10T02:36:02;13.10;88.30
10133;DHT22;5106;50.926;7.080;2023-05-10T02:38:30;13.00;88.20
10133;DHT22;5106;50.926;7.080;2023-05-10T02:40:57;13.00;88.30
10133;DHT22;5106;50.926;7.080;2023-05-10T02:43:24;13.00;88.50
10133;DHT22;5106;50.926;7.080;2023-05-10T02:45:50;13.00;88.60
10133;DHT22;5106;50.926;7.080;2023-05-10T02:48:16;13.00;88.70
10133;DHT22;5106;50.926;7.080;2023-05-10T02:50:46;13.00;88.70
10133;DHT22;5106;50.926;7.080;2023-05-10T02:53:20;13.00;88.70
10133;DHT22;5106;50.926;7.080;2023-05-10T02:55:51;13.00;88.80
10133;DHT22;5106;50.926;7.080;2023-05-10T02:58:17;13.00;88.70
10133;DHT22;5106;50.926;7.080;2023-05-10T03:00:45;12.90;88.60
10133;DHT22;5106;50.926;7.080;2023-05-10T03:03:11;12.90;88.60
10133;DHT22;5106;50.926;7.080;2023-05-10T03:05:37;12.80;88.60
10133;DHT22;5106;50.926;7.080;2023-05-10T03:08:02;12.90;88.70
10133;DHT22;5106;50.926;7.080;2023-05-10T03:10:30;12.90;88.80
10133;DHT22;5106;50.926;7.080;2023-05-10T03:13:32;12.90;88.80
10133;DHT22;5106;50.926;7.080;2023-05-10T03:16:21;12.80;88.80
10133;DHT22;5106;50.926;7.080;2023-05-10T03:19:01;12.80;88.70
10133;DHT22;5106;50.926;7.080;2023-05-10T03:21:29;12.80;88.80
10133;DHT22;5106;50.926;7.080;2023-05-10T03:24:08;12.80;88.80
10133;DHT22;5106;50.926;7.080;2023-05-10T03:26:37;12.80;88.80
10133;DHT22;5106;50.926;7.080;2023-05-10T03:29:05;12.80;88.80
10133;DHT22;5106;50.926;7.080;2023-05-10T03:31:31;12.80;88.80
10133;DHT22;5106;50.926;7.080;2023-05-10T03:33:57;12.80;88.80
10133;DHT22;5106;50.926;7.080;2023-05-10T03:36:23;12.80;88.80
10133;DHT22;5106;50.926;7.080;2023-05-10T03:38:49;12.80;88.80
10133;DHT22;5106;50.926;7.080;2023-05-10T03:41:14;12.90;88.90
10133;DHT22;5106;50.926;7.080;2023-05-10T03:43:40;12.90;88.90
10133;DHT22;5106;50.926;7.080;2023-05-10T03:46:06;12.90;88.90
10133;DHT22;5106;50.926;7.080;2023-05-10T03:48:32;12.90;89.00
10133;DHT22;5106;50.926;7.080;2023-05-10T03:50:58;13.00;89.00
10133;DHT22;5106;50.926;7.080;2023-05-10T03:53:24;13.00;89.00
10133;DHT22;5106;50.926;7.080;2023-05-10T03:55:50;13.00;89.00
10133;DHT22;5106;50.926;7.080;2023-05-10T03:58:16;13.00;88.90
10133;DHT22;5106;50.926;7.080;2023-05-10T04:00:41;13.00;88.90
10133;DHT22;5106;50.926;7.080;2023-05-10T04:03:10;13.00;88.90
10133;DHT22;5106;50.926;7.080;2023-05-10T04:05:36;13.00;88.90
10133;DHT22;5106;50.926;7.080;2023-05-10T04:08:02;13.00;88.90
10133;DHT22;5106;50.926;7.080;2023-05-10T04:10:28;13.10;88.90
10133;DHT22;5106;50.926;7.080;2023-05-10T04:12:54;13.10;88.90
10133;DHT22;5106;50.926;7.080;2023-05-10T04:15:19;13.10;88.90
10133;DHT22;5106;50.926;7.080;2023-05-10T04:17:45;13.10;88.90
10133;DHT22;5106;50.926;7.080;2023-05-10T04:20:11;13.10;88.80
10133;DHT22;5106;50.926;7.080;2023-05-10T04:22:37;13.20;88.80
10133;DHT22;5106;50.926;7.080;2023-05-10T04:25:03;13.10;88.80
10133;DHT22;5106;50.926;7.080;2023-05-10T04:27:30;13.20;88.80
10133;DHT22;5106;50.926;7.080;2023-05-10T04:29:56;13.20;88.70
10133;DHT22;5106;50.926;7.080;2023-05-10T04:32:22;13.20;88.70
10133;DHT22;5106;50.926;7.080;2023-05-10T04:34:47;13.10;88.60
10133;DHT22;5106;50.926;7.080;2023-05-10T04:37:13;13.10;88.60
10133;DHT22;5106;50.926;7.080;2023-05-10T04:39:39;13.10;88.60
10133;DHT22;5106;50.926;7.080;2023-05-10T04:42:04;13.10;88.60
10133;DHT22;5106;50.926;7.080;2023-05-10T04:44:31;13.10;88.50
10133;DHT22;5106;50.926;7.080;2023-05-10T04:46:57;13.10;88.50
10133;DHT22;5106;50.926;7.080;2023-05-10T04:49:22;13.10;88.60
10133;DHT22;5106;50.926;7.080;2023-05-10T04:51:48;13.20;88.60
10133;DHT22;5106;50.926;7.080;2023-05-10T04:54:13;13.20;88.60
10133;DHT22;5106;50.926;7.080;2023-05-10T04:56:39;13.20;88.50
10133;DHT22;5106;50.926;7.080;2023-05-10T04:59:06;13.20;88.30
10133;DHT22;5106;50.926;7.080;2023-05-10T05:01:32;13.10;88.20
10133;DHT22;5106;50.926;7.080;2023-05-10T05:03:58;13.10;88.30
10133;DHT22;5106;50.926;7.080;2023-05-10T05:06:24;13.10;88.30
10133;DHT22;5106;50.926;7.080;2023-05-10T05:08:50;13.10;88.40
10133;DHT22;5106;50.926;7.080;2023-05-10T05:11:17;13.20;88.40
10133;DHT22;5106;50.926;7.080;2023-05-10T05:13:42;13.20;88.40
10133;DHT22;5106;50.926;7.080;2023-05-10T05:16:08;13.20;88.50
10133;DHT22;5106;50.926;7.080;2023-05-10T05:18:34;13.20;88.50
10133;DHT22;5106;50.926;7.080;2023-05-10T05:21:01;13.20;88.40
10133;DHT22;5106;50.926;7.080;2023-05-10T05:23:26;13.20;88.30
10133;DHT22;5106;50.926;7.080;2023-05-10T05:25:52;13.20;88.20
10133;DHT22;5106;50.926;7.080;2023-05-10T05:28:19;13.20;88.30
10133;DHT22;5106;50.926;7.080;2023-05-10T05:30:45;13.20;88.30
10133;DHT22;5106;50.926;7.080;2023-05-10T05:33:10;13.20;88.20
10133;DHT22;5106;50.926;7.080;2023-05-10T05:35:36;13.20;88.10
10133;DHT22;5106;50.926;7.080;2023-05-10T05:38:02;13.10;87.80
10133;DHT22;5106;50.926;7.080;2023-05-10T05:40:28;13.10;87.80
10133;DHT22;5106;50.926;7.080;2023-05-10T05:42:53;13.10;88.00
10133;DHT22;5106;50.926;7.080;2023-05-10T05:45:19;13.10;88.00
10133;DHT22;5106;50.926;7.080;2023-05-10T05:47:44;13.20;88.00
10133;DHT22;5106;50.926;7.080;2023-05-10T05:50:10;13.20;88.10
10133;DHT22;5106;50.926;7.080;2023-05-10T05:52:36;13.20;88.10
10133;DHT22;5106;50.926;7.080;2023-05-10T05:55:01;13.20;88.00
10133;DHT22;5106;50.926;7.080;2023-05-10T05:57:27;13.20;87.90
10133;DHT22;5106;50.926;7.080;2023-05-10T05:59:52;13.20;87.80
10133;DHT22;5106;50.926;7.080;2023-05-10T06:02:18;13.20;87.90
10133;DHT22;5106;50.926;7.080;2023-05-10T06:04:44;13.20;88.00
10133;DHT22;5106;50.926;7.080;2023-05-10T06:07:09;13.20;88.00
10133;DHT22;5106;50.926;7.080;2023-05-10T06:09:35;13.20;88.00
10133;DHT22;5106;50.926;7.080;2023-05-10T06:12:01;13.20;88.00
10133;DHT22;5106;50.926;7.080;2023-05-10T06:14:27;13.20;88.00
10133;DHT22;5106;50.926;7.080;2023-05-10T06:16:52;13.20;88.10
10133;DHT22;5106;50.926;7.080;2023-05-10T06:19:18;13.20;87.80
10133;DHT22;5106;50.926;7.080;2023-05-10T06:21:44;13.20;87.60
10133;DHT22;5106;50.926;7.080;2023-05-10T06:24:09;13.20;87.60
10133;DHT22;5106;50.926;7.080;2023-05-10T06:26:35;13.20;87.70
10133;DHT22;5106;50.926;7.080;2023-05-10T06:29:01;13.20;87.60
10133;DHT22;5106;50.926;7.080;2023-05-10T06:31:27;13.20;87.50
10133;DHT22;5106;50.926;7.080;2023-05-10T06:33:52;13.20;87.60
10133;DHT22;5106;50.926;7.080;2023-05-10T06:36:18;13.20;87.60
10133;DHT22;5106;50.926;7.080;2023-05-10T06:38:44;13.20;87.70
10133;DHT22;5106;50.926;7.080;2023-05-10T06:41:09;13.20;87.80
10133;DHT22;5106;50.926;7.080;2023-05-10T06:43:38;13.20;87.60
10133;DHT22;5106;50.926;7.080;2023-05-10T06:46:06;13.20;87.50
10133;DHT22;5106;50.926;7.080;2023-05-10T06:48:32;13.20;87.60
10133;DHT22;5106;50.926;7.080;2023-05-10T06:50:58;13.20;87.50
10133;DHT22;5106;50.926;7.080;2023-05-10T06:53:23;13.20;87.60
10133;DHT22;5106;50.926;7.080;2023-05-10T06:55:49;13.20;87.50
10133;DHT22;5106;50.926;7.080;2023-05-10T06:58:15;13.20;87.50
10133;DHT22;5106;50.926;7.080;2023-05-10T07:00:41;13.20;87.20
10133;DHT22;5106;50.926;7.080;2023-05-10T07:03:11;13.20;87.10
10133;DHT22;5106;50.926;7.080;2023-05-10T07:05:37;13.20;87.20
10133;DHT22;5106;50.926;7.080;2023-05-10T07:08:03;13.20;87.10
10133;DHT22;5106;50.926;7.080;2023-05-10T07:10:28;13.20;87.10
10133;DHT22;5106;50.926;7.080;2023-05-10T07:12:55;13.20;87.10
10133;DHT22;5106;50.926;7.080;2023-05-10T07:15:20;13.20;87.20
10133;DHT22;5106;50.926;7.080;2023-05-10T07:17:46;13.20;87.30
10133;DHT22;5106;50.926;7.080;2023-05-10T07:20:12;13.20;87.30
10133;DHT22;5106;50.926;7.080;2023-05-10T07:22:37;13.20;87.30
10133;DHT22;5106;50.926;7.080;2023-05-10T07:25:03;13.20;87.40
10133;DHT22;5106;50.926;7.080;2023-05-10T07:27:29;13.20;87.50
10133;DHT22;5106;50.926;7.080;2023-05-10T07:29:54;13.30;87.60
10133;DHT22;5106;50.926;7.080;2023-05-10T07:32:21;13.30;87.50
10133;DHT22;5106;50.926;7.080;2023-05-10T07:34:47;13.30;87.40
10133;DHT22;5106;50.926;7.080;2023-05-10T07:37:13;13.30;87.20
10133;DHT22;5106;50.926;7.080;2023-05-10T07:39:38;13.20;87.00
10133;DHT22;5106;50.926;7.080;2023-05-10T07:42:04;13.20;87.10
10133;DHT22;5106;50.926;7.080;2023-05-10T07:44:29;13.20;87.20
10133;DHT22;5106;50.926;7.080;2023-05-10T07:46:55;13.20;87.10
10133;DHT22;5106;50.926;7.080;2023-05-10T07:49:21;13.20;87.20
10133;DHT22;5106;50.926;7.080;2023-05-10T07:51:47;13.20;87.30
10133;DHT22;5106;50.926;7.080;2023-05-10T07:54:14;13.20;87.20
10133;DHT22;5106;50.926;7.080;2023-05-10T07:56:39;13.20;87.20
10133;DHT22;5106;50.926;7.080;2023-05-10T07:59:10;13.20;87.10
10133;DHT22;5106;50.926;7.080;2023-05-10T08:01:41;13.20;87.30
10133;DHT22;5106;50.926;7.080;2023-05-10T08:04:07;13.20;87.50
10133;DHT22;5106;50.926;7.080;2023-05-10T08:06:32;13.20;87.60
10133;DHT22;5106;50.926;7.080;2023-05-10T08:08:58;13.20;87.60
10133;DHT22;5106;50.926;7.080;2023-05-10T08:11:23;13.30;87.70
10133;DHT22;5106;50.926;7.080;2023-05-10T08:13:50;13.30;87.70
10133;DHT22;5106;50.926;7.080;2023-05-10T08:16:16;13.30;87.80
10133;DHT22;5106;50.926;7.080;2023-05-10T08:18:45;13.30;87.90
10133;DHT22;5106;50.926;7.080;2023-05-10T08:21:16;13.30;88.00
10133;DHT22;5106;50.926;7.080;2023-05-10T08:23:42;13.40;88.20
10133;DHT22;5106;50.926;7.080;2023-05-10T08:26:09;13.50;88.30
10133;DHT22;5106;50.926;7.080;2023-05-10T08:28:34;13.60;88.30
10133;DHT22;5106;50.926;7.080;2023-05-10T08:31:00;13.60;88.10
10133;DHT22;5106;50.926;7.080;2023-05-10T08:33:25;13.60;87.90
10133;DHT22;5106;50.926;7.080;2023-05-10T08:35:51;13.70;87.90
10133;DHT22;5106;50.926;7.080;2023-05-10T08:38:17;13.80;88.00
10133;DHT22;5106;50.926;7.080;2023-05-10T08:40:46;13.90;88.00
10133;DHT22;5106;50.926;7.080;2023-05-10T08:43:15;13.90;87.80
10133;DHT22;5106;50.926;7.080;2023-05-10T08:45:43;13.90;87.50
10133;DHT22;5106;50.926;7.080;2023-05-10T08:48:11;13.90;87.40
10133;DHT22;5106;50.926;7.080;2023-05-10T08:50:41;13.90;87.50
10133;DHT22;5106;50.926;7.080;2023-05-10T08:53:12;13.90;87.30
10133;DHT22;5106;50.926;7.080;2023-05-10T08:55:39;13.90;87.20
10133;DHT22;5106;50.926;7.080;2023-05-10T08:58:07;13.90;87.10
10133;DHT22;5106;50.926;7.080;2023-05-10T09:00:33;13.90;87.10
10133;DHT22;5106;50.926;7.080;2023-05-10T09:03:01;13.90;86.90
10133;DHT22;5106;50.926;7.080;2023-05-10T09:05:27;13.90;86.90
10133;DHT22;5106;50.926;7.080;2023-05-10T09:07:53;13.80;86.60
10133;DHT22;5106;50.926;7.080;2023-05-10T09:10:19;13.70;86.20
10133;DHT22;5106;50.926;7.080;2023-05-10T09:12:45;13.70;86.20
10133;DHT22;5106;50.926;7.080;2023-05-10T09:15:15;13.60;86.20
10133;DHT22;5106;50.926;7.080;2023-05-10T09:17:45;13.60;86.40
10133;DHT22;5106;50.926;7.080;2023-05-10T09:20:10;13.50;86.40
10133;DHT22;5106;50.926;7.080;2023-05-10T09:22:36;13.40;86.50
10133;DHT22;5106;50.926;7.080;2023-05-10T09:25:10;13.40;86.70
10133;DHT22;5106;50.926;7.080;2023-05-10T09:27:37;13.40;86.90
10133;DHT22;5106;50.926;7.080;2023-05-10T09:30:03;13.40;86.90
10133;DHT22;5106;50.926;7.080;2023-05-10T09:32:45;13.40;87.00
10133;DHT22;5106;50.926;7.080;2023-05-10T09:35:22;13.50;87.20
10133;DHT22;5106;50.926;7.080;2023-05-10T09:37:50;13.50;87.20
10133;DHT22;5106;50.926;7.080;2023-05-10T09:40:21;13.50;87.30
10133;DHT22;5106;50.926;7.080;2023-05-10T09:43:01;13.50;87.30
10133;DHT22;5106;50.926;7.080;2023-05-10T09:45:29;13.60;87.40
10133;DHT22;5106;50.926;7.080;2023-05-10T09:47:56;13.60;87.40
10133;DHT22;5106;50.926;7.080;2023-05-10T09:50:22;13.70;87.60
10133;DHT22;5106;50.926;7.080;2023-05-10T09:55:46;13.90;87.80
10133;DHT22;5106;50.926;7.080;2023-05-10T09:58:13;14.00;87.70
10133;DHT22;5106;50.926;7.080;2023-05-10T10:00:43;14.00;87.80
10133;DHT22;5106;50.926;7.080;2023-05-10T10:03:17;14.00;87.70
10133;DHT22;5106;50.926;7.080;2023-05-10T10:05:44;14.00;87.40
10133;DHT22;5106;50.926;7.080;2023-05-10T10:08:10;13.70;86.60
10133;DHT22;5106;50.926;7.080;2023-05-10T10:10:36;13.60;86.40
10133;DHT22;5106;50.926;7.080;2023-05-10T10:13:02;13.40;86.30
10133;DHT22;5106;50.926;7.080;2023-05-10T10:15:28;13.20;86.00
10133;DHT22;5106;50.926;7.080;2023-05-10T10:17:54;13.20;86.10
10133;DHT22;5106;50.926;7.080;2023-05-10T10:20:21;13.10;86.10
10133;DHT22;5106;50.926;7.080;2023-05-10T10:22:48;13.10;86.40
10133;DHT22;5106;50.926;7.080;2023-05-10T10:25:16;13.10;86.50
10133;DHT22;5106;50.926;7.080;2023-05-10T10:30:37;13.20;86.90
10133;DHT22;5106;50.926;7.080;2023-05-10T10:36:04;13.40;87.10
10133;DHT22;5106;50.926;7.080;2023-05-10T10:41:35;13.60;87.20
10133;DHT22;5106;50.926;7.080;2023-05-10T10:44:34;13.80;87.30
10133;DHT22;5106;50.926;7.080;2023-05-10T10:49:32;14.00;87.20
10133;DHT22;5106;50.926;7.080;2023-05-10T10:52:21;14.00;87.00
10133;DHT22;5106;50.926;7.080;2023-05-10T10:57:24;13.80;85.70
10133;DHT22;5106;50.926;7.080;2023-05-10T10:59:58;13.90;86.10
10133;DHT22;5106;50.926;7.080;2023-05-10T11:05:36;13.90;85.80
10133;DHT22;5106;50.926;7.080;2023-05-10T11:10:33;13.90;85.10
10133;DHT22;5106;50.926;7.080;2023-05-10T11:13:03;13.80;85.00
10133;DHT22;5106;50.926;7.080;2023-05-10T11:15:40;13.90;84.60
10133;DHT22;5106;50.926;7.080;2023-05-10T11:18:26;14.00;84.80
10133;DHT22;5106;50.926;7.080;2023-05-10T11:21:00;14.20;84.50
10133;DHT22;5106;50.926;7.080;2023-05-10T11:26:08;14.40;83.50
10133;DHT22;5106;50.926;7.080;2023-05-10T11:28:45;14.40;83.90
10133;DHT22;5106;50.926;7.080;2023-05-10T11:31:17;14.60;83.50
10133;DHT22;5106;50.926;7.080;2023-05-10T11:33:44;14.70;83.80
10133;DHT22;5106;50.926;7.080;2023-05-10T11:36:18;14.80;84.00
10133;DHT22;5106;50.926;7.080;2023-05-10T11:38:44;14.70;83.20
10133;DHT22;5106;50.926;7.080;2023-05-10T11:41:10;14.80;83.60
10133;DHT22;5106;50.926;7.080;2023-05-10T11:43:38;14.80;82.80
10133;DHT22;5106;50.926;7.080;2023-05-10T11:46:05;14.90;83.00
10133;DHT22;5106;50.926;7.080;2023-05-10T11:48:32;15.00;83.10
10133;DHT22;5106;50.926;7.080;2023-05-10T11:50:57;15.00;82.90
10133;DHT22;5106;50.926;7.080;2023-05-10T11:53:26;15.10;82.90
10133;DHT22;5106;50.926;7.080;2023-05-10T11:55:51;15.10;82.60
10133;DHT22;5106;50.926;7.080;2023-05-10T11:58:18;15.00;81.90
10133;DHT22;5106;50.926;7.080;2023-05-10T12:00:44;15.00;81.90
10133;DHT22;5106;50.926;7.080;2023-05-10T12:03:10;15.10;82.40
10133;DHT22;5106;50.926;7.080;2023-05-10T12:05:36;15.10;82.00
10133;DHT22;5106;50.926;7.080;2023-05-10T12:08:15;15.10;82.10
10133;DHT22;5106;50.926;7.080;2023-05-10T12:10:41;15.20;82.70
10133;DHT22;5106;50.926;7.080;2023-05-10T12:13:11;15.10;82.20
10133;DHT22;5106;50.926;7.080;2023-05-10T12:15:38;15.10;82.30
10133;DHT22;5106;50.926;7.080;2023-05-10T12:18:03;15.10;82.40
10133;DHT22;5106;50.926;7.080;2023-05-10T12:20:30;15.10;81.60
10133;DHT22;5106;50.926;7.080;2023-05-10T12:22:58;15.00;81.50
10133;DHT22;5106;50.926;7.080;2023-05-10T12:25:30;15.00;81.00
10133;DHT22;5106;50.926;7.080;2023-05-10T12:27:58;15.00;81.10
10133;DHT22;5106;50.926;7.080;2023-05-10T12:30:28;15.00;81.80
10133;DHT22;5106;50.926;7.080;2023-05-10T12:33:00;15.10;82.20
10133;DHT22;5106;50.926;7.080;2023-05-10T12:35:26;15.20;80.40
10133;DHT22;5106;50.926;7.080;2023-05-10T12:37:51;15.40;80.90
10133;DHT22;5106;50.926;7.080;2023-05-10T12:40:17;15.50;79.70
10133;DHT22;5106;50.926;7.080;2023-05-10T12:42:43;15.60;80.00
10133;DHT22;5106;50.926;7.080;2023-05-10T12:45:12;15.70;80.10
10133;DHT22;5106;50.926;7.080;2023-05-10T12:47:37;15.80;79.50
10133;DHT22;5106;50.926;7.080;2023-05-10T12:50:03;15.90;79.10
10133;DHT22;5106;50.926;7.080;2023-05-10T12:52:30;16.00;79.00
10133;DHT22;5106;50.926;7.080;2023-05-10T12:54:57;16.00;78.40
10133;DHT22;5106;50.926;7.080;2023-05-10T12:57:23;16.00;78.30
10133;DHT22;5106;50.926;7.080;2023-05-10T12:59:49;16.10;78.30
10133;DHT22;5106;50.926;7.080;2023-05-10T13:02:15;16.20;79.70
10133;DHT22;5106;50.926;7.080;2023-05-10T13:04:41;16.30;80.40
10133;DHT22;5106;50.926;7.080;2023-05-10T13:07:07;16.30;78.80
10133;DHT22;5106;50.926;7.080;2023-05-10T13:09:32;16.40;78.90
10133;DHT22;5106;50.926;7.080;2023-05-10T13:11:58;16.50;79.50
10133;DHT22;5106;50.926;7.080;2023-05-10T13:14:24;16.40;77.90
10133;DHT22;5106;50.926;7.080;2023-05-10T13:16:50;16.40;77.30
10133;DHT22;5106;50.926;7.080;2023-05-10T13:19:16;16.50;77.30
10133;DHT22;5106;50.926;7.080;2023-05-10T13:21:42;16.60;78.10
10133;DHT22;5106;50.926;7.080;2023-05-10T13:24:09;16.80;78.60
10133;DHT22;5106;50.926;7.080;2023-05-10T13:26:35;16.80;79.20
10133;DHT22;5106;50.926;7.080;2023-05-10T13:29:01;16.60;78.00
10133;DHT22;5106;50.926;7.080;2023-05-10T13:31:27;16.60;79.10
10133;DHT22;5106;50.926;7.080;2023-05-10T13:33:53;16.80;78.80
10133;DHT22;5106;50.926;7.080;2023-05-10T13:36:18;16.90;78.10
10133;DHT22;5106;50.926;7.080;2023-05-10T13:38:44;16.90;77.70
10133;DHT22;5106;50.926;7.080;2023-05-10T13:41:11;16.90;78.10
10133;DHT22;5106;50.926;7.080;2023-05-10T13:43:36;16.80;77.80
10133;DHT22;5106;50.926;7.080;2023-05-10T13:46:02;16.80;78.80
10133;DHT22;5106;50.926;7.080;2023-05-10T13:48:28;16.80;77.30
10133;DHT22;5106;50.926;7.080;2023-05-10T13:50:53;16.60;76.70
10133;DHT22;5106;50.926;7.080;2023-05-10T13:53:19;16.50;77.70
10133;DHT22;5106;50.926;7.080;2023-05-10T13:55:45;16.50;78.20
10133;DHT22;5106;50.926;7.080;2023-05-10T13:58:10;16.40;76.60
10133;DHT22;5106;50.926;7.080;2023-05-10T14:00:36;16.40;77.20
10133;DHT22;5106;50.926;7.080;2023-05-10T14:03:01;16.30;76.40
10133;DHT22;5106;50.926;7.080;2023-05-10T14:05:27;16.40;78.30
10133;DHT22;5106;50.926;7.080;2023-05-10T14:07:53;16.50;76.80
10133;DHT22;5106;50.926;7.080;2023-05-10T14:10:19;16.50;76.90
10133;DHT22;5106;50.926;7.080;2023-05-10T14:12:45;16.60;77.20
10133;DHT22;5106;50.926;7.080;2023-05-10T14:15:10;16.50;77.20
10133;DHT22;5106;50.926;7.080;2023-05-10T14:17:37;16.60;77.10
10133;DHT22;5106;50.926;7.080;2023-05-10T14:20:02;16.60;77.20
10133;DHT22;5106;50.926;7.080;2023-05-10T14:22:29;16.60;76.80
10133;DHT22;5106;50.926;7.080;2023-05-10T14:24:55;16.60;76.50
10133;DHT22;5106;50.926;7.080;2023-05-10T14:27:20;16.60;77.50
10133;DHT22;5106;50.926;7.080;2023-05-10T14:29:47;16.60;78.60
10133;DHT22;5106;50.926;7.080;2023-05-10T14:32:12;16.60;78.30
10133;DHT22;5106;50.926;7.080;2023-05-10T14:34:38;16.50;77.20
10133;DHT22;5106;50.926;7.080;2023-05-10T14:37:04;16.50;75.90
10133;DHT22;5106;50.926;7.080;2023-05-10T14:39:30;16.50;76.40
10133;DHT22;5106;50.926;7.080;2023-05-10T14:41:55;16.50;77.20
10133;DHT22;5106;50.926;7.080;2023-05-10T14:44:21;16.40;76.70
10133;DHT22;5106;50.926;7.080;2023-05-10T14:46:47;16.40;76.80
10133;DHT22;5106;50.926;7.080;2023-05-10T14:49:14;16.40;77.70
10133;DHT22;5106;50.926;7.080;2023-05-10T14:51:40;16.40;78.30
10133;DHT22;5106;50.926;7.080;2023-05-10T14:54:06;16.40;78.70
10133;DHT22;5106;50.926;7.080;2023-05-10T14:56:31;16.40;78.90
10133;DHT22;5106;50.926;7.080;2023-05-10T14:58:57;16.30;78.40
10133;DHT22;5106;50.926;7.080;2023-05-10T15:01:22;16.30;78.90
10133;DHT22;5106;50.926;7.080;2023-05-10T15:03:48;16.20;79.00
10133;DHT22;5106;50.926;7.080;2023-05-10T15:06:14;16.20;78.50
10133;DHT22;5106;50.926;7.080;2023-05-10T15:08:41;16.20;78.30
10133;DHT22;5106;50.926;7.080;2023-05-10T15:11:06;16.20;78.00
10133;DHT22;5106;50.926;7.080;2023-05-10T15:13:32;16.20;78.30
10133;DHT22;5106;50.926;7.080;2023-05-10T15:15:57;16.10;78.90
10133;DHT22;5106;50.926;7.080;2023-05-10T15:18:23;16.20;79.50
10133;DHT22;5106;50.926;7.080;2023-05-10T15:20:49;16.10;79.00
10133;DHT22;5106;50.926;7.080;2023-05-10T15:23:14;16.10;79.80
10133;DHT22;5106;50.926;7.080;2023-05-10T15:25:40;16.10;80.20
10133;DHT22;5106;50.926;7.080;2023-05-10T15:28:06;16.10;80.20
10133;DHT22;5106;50.926;7.080;2023-05-10T15:30:31;16.10;80.20
10133;DHT22;5106;50.926;7.080;2023-05-10T15:32:57;16.10;80.50
10133;DHT22;5106;50.926;7.080;2023-05-10T15:35:23;16.00;80.70
10133;DHT22;5106;50.926;7.080;2023-05-10T15:37:48;16.00;80.90
10133;DHT22;5106;50.926;7.080;2023-05-10T15:40:17;16.00;80.90
10133;DHT22;5106;50.926;7.080;2023-05-10T15:42:42;16.00;80.90
10133;DHT22;5106;50.926;7.080;2023-05-10T15:45:09;15.90;81.00
10133;DHT22;5106;50.926;7.080;2023-05-10T15:47:35;15.80;81.20
10133;DHT22;5106;50.926;7.080;2023-05-10T15:50:00;15.70;81.30
10133;DHT22;5106;50.926;7.080;2023-05-10T15:52:26;15.70;81.30
10133;DHT22;5106;50.926;7.080;2023-05-10T15:54:51;15.50;81.50
10133;DHT22;5106;50.926;7.080;2023-05-10T15:57:17;15.50;81.90
10133;DHT22;5106;50.926;7.080;2023-05-10T15:59:42;15.40;82.00
10133;DHT22;5106;50.926;7.080;2023-05-10T16:02:08;15.40;82.20
10133;DHT22;5106;50.926;7.080;2023-05-10T16:04:35;15.30;82.50
10133;DHT22;5106;50.926;7.080;2023-05-10T16:07:01;15.30;82.70
10133;DHT22;5106;50.926;7.080;2023-05-10T16:09:27;15.30;82.80
10133;DHT22;5106;50.926;7.080;2023-05-10T16:11:53;15.20;83.00
10133;DHT22;5106;50.926;7.080;2023-05-10T16:14:19;15.20;83.20
10133;DHT22;5106;50.926;7.080;2023-05-10T16:16:47;15.20;83.20
10133;DHT22;5106;50.926;7.080;2023-05-10T16:19:14;15.20;83.30
10133;DHT22;5106;50.926;7.080;2023-05-10T16:21:40;15.10;83.30
10133;DHT22;5106;50.926;7.080;2023-05-10T16:24:06;15.00;83.30
10133;DHT22;5106;50.926;7.080;2023-05-10T16:26:31;15.00;83.20